Tiempo atmosférico en la estación meteorológica de Pozuelo De Tabara, Zamora (711 m.)



Fecha
DESCASC
Temp. máxima en grados centígrados (hora)
DESCASC
Temp. mínima en grados centígrados (hora)
DESCASC
Temp. media en grados centígrados
DESCASC
Racha de viento máxima en m/sg (hora)
DESCASC
Velocidad máxima media en intervalos de 10 minutos(hora)
DESCASC
Precipitaciones diarias en mm
DESCASC
Precipitaciones de 00:00 a 06:00 en mm
DESCASC
Precipitaciones de 06:00 a 12:00 en mm
DESCASC
Precipitaciones de 12:00 a 18:00 en mm
DESCASC
Precipitaciones de 18:00 a 24:00 en mm
DESCASC
01-06-2019 32.6 (16:50) 11.9 (00:00) 22.2 -- (--) -- (--) -- 0 -- 0 0
03-06-2019 28 (17:10) 15.8 (00:00) 21.9 12.78 (17:50) 8.33 (17:50) 0 0 0 0 0
26-06-2019 28.4 (17:10) 14.6 (00:00) 21.5 10.83 (16:50) 6.94 (16:20) 0 0 0 0 0
31-05-2019 31.4 (17:30) 11.4 (00:00) 21.4 8.33 (16:20) 4.17 (16:20) 0 0 0 0 0
02-06-2019 29.7 (15:40) 12.4 (00:00) 21.1 11.94 (16:40) 6.94 (16:20) 0 0 0 0 0
23-06-2019 25.5 (17:50) 15.2 (00:00) 20.3 12.22 (11:40) 8.06 (12:20) 0 0 0 0 0
22-06-2019 29.9 (18:20) 10.1 (00:00) 20 12.22 (16:40) 7.78 (16:40) 0 0 0 0 0
25-06-2019 25.9 (19:30) 12.8 (00:00) 19.3 8.61 (15:50) 3.89 (17:10) 1.4 0.4 0.2 0.8 0
19-06-2019 22.8 (17:30) 14.2 (00:00) 18.5 11.11 (17:00) 7.5 (18:30) 0 0 0 0 0
30-05-2019 29.2 (18:30) 7.5 (00:00) 18.4 8.06 (18:30) 5 (17:50) 0 0 0 0 0
17-06-2019 27.8 (15:00) 8.7 (00:00) 18.2 11.94 (13:00) 7.78 (15:40) 0 0 0 0 0
20-06-2019 25.1 (18:10) 11.2 (00:00) 18.2 11.67 (19:50) 5.83 (21:20) 2.6 0 0 0 2.6
16-06-2019 27.2 (18:50) 6.7 (00:00) 17 10.28 (14:50) 5.28 (19:20) 0 0 0 0 0
18-06-2019 24.4 (13:20) 9.3 (00:00) 16.8 16.11 (16:00) 11.11 (15:10) 0 0 0 0 0
21-06-2019 23.8 (18:50) 9.6 (00:00) 16.7 9.17 (16:40) 4.17 (08:30) 0 0 0 0 0
24-06-2019 18.9 (00:00) 12.8 (00:00) 15.8 10.83 (09:10) 5.83 (09:10) 30.4 0 4.6 18.4 7.4
04-06-2019 20.2 (14:00) 11.4 (00:00) 15.8 13.89 (09:20) 10.28 (09:20) 0 0 0 0 0
15-06-2019 23.2 (18:10) 7.3 (00:00) 15.3 8.89 (01:50) 5.83 (01:00) 0 0 0 0 0
11-06-2019 19.6 (19:10) 10.3 (00:00) 15 13.33 (15:00) 6.67 (11:50) 0 0 0 0 0
28-05-2019 24.3 (17:50) 5.7 (00:00) 15 12.5 (19:30) 6.94 (19:30) 0 0 0 0 0
09-06-2019 22.7 (17:20) 6.6 (00:00) 14.7 12.5 (17:50) 8.89 (17:50) 0 0 0 0 0
29-05-2019 24.9 (19:00) 4.4 (00:00) 14.6 8.06 (17:10) 4.72 (18:30) 0 0 0 0 0
10-06-2019 22.9 (18:30) 5.3 (00:00) 14.1 10.28 (19:50) 7.22 (19:40) 0 0 0 0 0
08-06-2019 23.3 (17:20) 3.7 (00:00) 13.5 8.06 (17:00) 5 (16:20) 0 0 0 0 0
13-06-2019 22.1 (16:50) 4.6 (00:00) 13.4 13.06 (18:50) 7.78 (18:10) 0 0 0 0 0
14-06-2019 21 (15:20) 5.7 (00:00) 13.3 13.61 (16:40) 8.61 (16:20) 0 0 0 0 0
05-06-2019 18.4 (16:10) 7.1 (00:00) 12.7 14.44 (16:10) 8.61 (14:10) 0 0 0 0 0
06-06-2019 20.5 (16:10) 4 (00:00) 12.3 18.89 (16:40) 12.5 (16:40) 3 0 0 0 3
12-06-2019 21.2 (18:20) 2.9 (00:00) 12.1 9.44 (18:00) 5.28 (17:40) 0 0 0 0 0
07-06-2019 17.4 (18:40) 6.3 (00:00) 11.8 13.61 (02:00) 8.89 (02:00) 0 0 0 0 0

Gráficas

Temp. máximas Temp. mínimas Temp. medias Precipitaciones Rachas de viento máximas Velocidades máximas media en intervalos de 10 minutos

Datos horarios

Fecha y hora oficial Temperatura (ºC) Velocidad del viento (km/h) Dirección del viento Racha (km/h) Dirección de racha Precipitación (mm) Presión (hPa) Tendencia (hPa) Humedad (%)
2019-06-26 23:00:00 20.5 9 Oeste 10 Oeste 0 -- -- 71
2019-06-26 22:00:00 24.1 7 Oeste 16 Oeste 0 -- -- 60
2019-06-26 21:00:00 27 14 Oeste 23 Sudoeste 0 -- -- 43
2019-06-26 20:00:00 28.3 17 Sudoeste 30 Oeste 0 -- -- 40
2019-06-26 19:00:00 28.2 13 Sudoeste 33 Sudoeste 0 -- -- 40
2019-06-26 18:00:00 28.2 20 Sudoeste 35 Sudoeste 0 -- -- 41
2019-06-26 17:00:00 28.1 19 Sudoeste 39 Sudoeste 0 -- -- 43
2019-06-26 16:00:00 27 17 Oeste 38 Sudoeste 0 -- -- 46
2019-06-26 15:00:00 26.7 22 Sudoeste 33 Sudoeste 0 -- -- 50
2019-06-26 14:00:00 26.5 19 Sudoeste 33 Sudoeste 0 -- -- 49
2019-06-26 13:00:00 24.5 17 Sudoeste 31 Sur 0 -- -- 52
2019-06-26 12:00:00 25.1 17 Sudoeste 34 Sudoeste 0 -- -- 53
2019-06-26 11:00:00 23.9 21 Sudoeste 31 Sudoeste 0 -- -- 56
2019-06-26 10:00:00 21.2 6 Sudeste 12 Sudeste 0 -- -- 73
2019-06-26 09:00:00 19.2 5 Este 8 Sudeste 0 -- -- 78
2019-06-26 08:00:00 16.3 2 Oeste 8 Oeste 0 -- -- 92
2019-06-26 07:00:00 14.7 3 Oeste 9 Sudoeste 0 -- -- 93
2019-06-26 06:00:00 15 5 Noroeste 11 Oeste 0 -- -- 92
2019-06-26 05:00:00 15.5 8 Noroeste 13 Oeste 0 -- -- 91
2019-06-26 04:00:00 15.6 8 Noroeste 11 Oeste 0 -- -- 90
2019-06-26 03:00:00 16.2 9 Oeste 14 Noroeste 0 -- -- 89
2019-06-26 02:00:00 16.8 11 Oeste 14 Oeste 0 -- -- 88
2019-06-26 01:00:00 17.3 12 Oeste 14 Oeste 0 -- -- 86
2019-06-26 00:00:00 18.1 10 Oeste 12 Oeste 0 -- -- 82
2019-06-25 23:00:00 19.8 6 Noroeste 17 Noroeste 0 -- -- 74
2019-06-25 22:00:00 21.7 10 Noroeste 18 Noroeste 0 -- -- 64
2019-06-25 21:00:00 23 13 Norte 18 Norte 0 -- -- 63
2019-06-25 20:00:00 24.3 10 Nordeste 19 Nordeste 0 -- -- 54
2019-06-25 19:00:00 25.2 6 Oeste 19 Noroeste 0 -- -- 52
2019-06-25 18:00:00 24 6 Noroeste 23 Oeste 0 -- -- 54
2019-06-25 17:00:00 22.9 10 Noroeste 20 Noroeste 0 -- -- 59
2019-06-25 16:00:00 21.9 7 Oeste 31 Oeste 0 -- -- 67
2019-06-25 15:00:00 20.6 11 Oeste 19 Noroeste 0 -- -- 71
2019-06-25 14:00:00 19.4 9 Sur 18 Sur 0 -- -- 74
2019-06-25 13:00:00 17.3 3 Sudeste 12 Este 0.8 -- -- 87
2019-06-25 12:00:00 16.9 8 Este 15 Este 0 -- -- 86
2019-06-25 11:00:00 15.9 7 Nordeste 13 Este 0.2 -- -- 88
2019-06-25 10:00:00 14.9 5 Nordeste 9 Nordeste 0 -- -- 91
2019-06-25 09:00:00 14.3 4 Norte 13 Noroeste 0 -- -- 94
2019-06-25 08:00:00 13.3 3 Noroeste 11 Oeste 0 -- -- 95
2019-06-25 07:00:00 13 7 Noroeste 10 Noroeste 0 -- -- 96
2019-06-25 06:00:00 13.3 5 Noroeste 9 Noroeste 0.4 -- -- 96
2019-06-25 05:00:00 13.3 0 Calma 5 Este 0 -- -- 96
2019-06-25 04:00:00 13.2 2 Nordeste 4 Este 0 -- -- 96
2019-06-25 03:00:00 12.8 0 Calma 12 Oeste 0 -- -- 96
2019-06-25 02:00:00 13.1 4 Sudoeste 8 Sudoeste 0 -- -- 95
2019-06-25 01:00:00 13.2 4 Sudeste 13 Sudeste 0 -- -- 95
2019-06-25 00:00:00 13.3 0 Calma 11 Noroeste 0 -- -- 95
2019-06-24 23:00:00 12.9 3 Noroeste 8 Noroeste 0 -- -- 94
2019-06-24 22:00:00 12.8 5 Oeste 25 Sudoeste 0 -- -- 94
2019-06-24 21:00:00 13 15 Sudoeste 28 Sudoeste 1.2 -- -- 94
2019-06-24 20:00:00 13.5 7 Oeste 26 Sudoeste 1 -- -- 93
2019-06-24 19:00:00 13.6 10 Sudoeste 23 Sudoeste 5.2 -- -- 94
2019-06-24 18:00:00 14 3 Oeste 23 Oeste 8.2 -- -- 95
2019-06-24 17:00:00 14.4 9 Noroeste 13 Noroeste 3.8 -- -- 94
2019-06-24 16:00:00 14.5 10 Noroeste 20 Oeste 3.6 -- -- 93
2019-06-24 15:00:00 14.6 12 Oeste 21 Sudoeste 1.4 -- -- 91
2019-06-24 14:00:00 16 13 Noroeste 26 Oeste 0 -- -- 84
2019-06-24 13:00:00 16.2 5 Oeste 11 Sudoeste 1.4 -- -- 89
2019-06-24 12:00:00 15.6 0 Calma 5 Nordeste 0 -- -- 83
2019-06-24 11:00:00 14.7 2 Este 8 Norte 0.2 -- -- 91
2019-06-24 10:00:00 14 7 Sudeste 39 Oeste 3.8 -- -- 90
2019-06-24 09:00:00 16.9 6 Noroeste 14 Oeste 0.4 -- -- 93
2019-06-24 08:00:00 16.6 4 Noroeste 8 Noroeste 0.2 -- -- 93
2019-06-24 07:00:00 16.8 0 Calma 6 Norte 0 -- -- 91
2019-06-24 06:00:00 16.8 6 Norte 12 Noroeste 0 -- -- 90
2019-06-24 05:00:00 17 6 Sudoeste 8 Sur 0 -- -- 87
2019-06-24 04:00:00 17.3 3 Sudoeste 6 Sudoeste 0 -- -- 83
2019-06-24 03:00:00 17.3 2 Sur 7 Oeste 0 -- -- 79
2019-06-24 02:00:00 17.7 5 Sur 6 Sur 0 -- -- 78
2019-06-24 01:00:00 18.5 4 Noroeste 11 Noroeste 0 -- -- 76
2019-06-24 00:00:00 18.9 0 Calma 14 Noroeste 0 -- -- 75
2019-06-23 23:00:00 19.2 10 Noroeste 24 Oeste 0 -- -- 75
2019-06-23 22:00:00 19.7 17 Noroeste 24 Noroeste 0 -- -- 72
2019-06-23 21:00:00 21.4 17 Oeste 28 Noroeste 0 -- -- 65
2019-06-23 20:00:00 24.6 17 Sudoeste 31 Sudoeste 0 -- -- 45
2019-06-23 19:00:00 25 21 Sur 38 Sudeste 0 -- -- 40
2019-06-23 18:00:00 25.5 21 Sudoeste 35 Sur 0 -- -- 38
2019-06-23 17:00:00 24.9 22 Sur 39 Sur 0 -- -- 37
2019-06-23 16:00:00 25.3 24 Sur 36 Sur 0 -- -- 39
2019-06-23 15:00:00 23.8 20 Sudoeste 31 Sudoeste 0 -- -- 44
2019-06-23 14:00:00 23.9 23 Sur 39 Sudoeste 0 -- -- 43
2019-06-23 13:00:00 23.9 23 Sudoeste 44 Sudoeste 0 -- -- 39
2019-06-23 12:00:00 24.3 26 Sur 44 Sur 0 -- -- 32
2019-06-23 11:00:00 21.9 11 Sur 20 Sur 0 -- -- 44
2019-06-23 10:00:00 18.8 7 Este 15 Sudeste 0 -- -- 47
2019-06-23 09:00:00 16.9 8 Sudeste 11 Sudeste 0 -- -- 50
2019-06-23 08:00:00 15.6 4 Sudeste 10 Sur 0 -- -- 55
2019-06-23 07:00:00 15.4 4 Noroeste 13 Noroeste 0 -- -- 51
2019-06-23 06:00:00 15.6 4 Oeste 24 Oeste 0 -- -- 50
2019-06-23 05:00:00 16.9 21 Oeste 31 Oeste 0 -- -- 46
2019-06-23 04:00:00 17.2 11 Oeste 21 Oeste 0 -- -- 47
2019-06-23 03:00:00 17.7 10 Sudoeste 14 Sudoeste 0 -- -- 47
2019-06-23 02:00:00 18.2 0 Calma 13 Oeste 0 -- -- 51
2019-06-23 01:00:00 20 10 Oeste 25 Oeste 0 -- -- 46
2019-06-23 00:00:00 21.5 15 Oeste 26 Oeste 0 -- -- 44
2019-06-22 23:00:00 22.9 16 Oeste 25 Oeste 0 -- -- 37
2019-06-22 22:00:00 24.6 15 Oeste 23 Sudoeste 0 -- -- 31
2019-06-22 21:00:00 26.3 14 Sudoeste 32 Sudoeste 0 -- -- 19
2019-06-22 20:00:00 27.9 18 Oeste 33 Sudoeste 0 -- -- 23
2019-06-22 19:00:00 29.1 24 Sudoeste 42 Sudoeste 0 -- -- 24
2019-06-22 18:00:00 29.6 19 Sudoeste 40 Sudoeste 0 -- -- 24
2019-06-22 17:00:00 29.8 21 Sudoeste 44 Sudoeste 0 -- -- 24
2019-06-22 16:00:00 28.9 11 Sur 43 Sur 0 -- -- 29
2019-06-22 15:00:00 27.1 13 Sur 30 Sudoeste 0 -- -- 33
2019-06-22 14:00:00 25 7 Sudeste 20 Este 0 -- -- 40
2019-06-22 13:00:00 22.6 7 Este 20 Este 0 -- -- 47
2019-06-22 12:00:00 19.9 10 Este 18 Este 0 -- -- 53
2019-06-22 11:00:00 17.6 10 Nordeste 17 Este 0 -- -- 61
2019-06-22 10:00:00 15 9 Nordeste 21 Nordeste 0 -- -- 74
2019-06-22 09:00:00 14 14 Nordeste 21 Nordeste 0 -- -- 76
2019-06-22 08:00:00 12.5 7 Noroeste 12 Noroeste 0 -- -- 82
2019-06-22 07:00:00 10.5 11 Noroeste 14 Noroeste 0 -- -- 88
2019-06-22 06:00:00 10.3 9 Noroeste 12 Noroeste 0 -- -- 86
2019-06-22 05:00:00 10.8 5 Noroeste 10 Oeste 0 -- -- 84
2019-06-22 04:00:00 10.5 7 Oeste 9 Oeste 0 -- -- 84
2019-06-22 03:00:00 11 6 Noroeste 8 Noroeste 0 -- -- 81
2019-06-22 02:00:00 13.2 3 Nordeste 9 Este 0 -- -- 73
2019-06-22 01:00:00 13.7 3 Este 10 Oeste 0 -- -- 69
2019-06-22 00:00:00 14.7 3 Sudeste 6 Sudeste 0 -- -- 64
2019-06-21 23:00:00 17 6 Sudeste 10 Sudeste 0 -- -- 58
2019-06-21 22:00:00 19.8 9 Sudeste 17 Sudeste 0 -- -- 48
2019-06-21 21:00:00 22.9 11 Sudeste 20 Este 0 -- -- 39
2019-06-21 20:00:00 23.5 11 Este 21 Este 0 -- -- 37
2019-06-21 19:00:00 23.6 9 Nordeste 20 Este 0 -- -- 37
2019-06-21 18:00:00 23.7 8 Nordeste 19 Este 0 -- -- 38
2019-06-21 17:00:00 23.2 9 Nordeste 33 Nordeste 0 -- -- 39
2019-06-21 16:00:00 22.3 9 Nordeste 25 Este 0 -- -- 43
2019-06-21 15:00:00 21.4 9 Nordeste 26 Nordeste 0 -- -- 45
2019-06-21 14:00:00 20.5 11 Nordeste 22 Este 0 -- -- 51
2019-06-21 13:00:00 19.5 11 Este 23 Este 0 -- -- 57
2019-06-21 12:00:00 18.3 11 Nordeste 23 Este 0 -- -- 61
2019-06-21 11:00:00 17.3 13 Este 20 Este 0 -- -- 68
2019-06-21 10:00:00 15.6 5 Nordeste 14 Noroeste 0 -- -- 78
2019-06-21 09:00:00 13.3 10 Norte 20 Norte 0 -- -- 87
2019-06-21 08:00:00 11.3 8 Noroeste 12 Noroeste 0 -- -- 94
2019-06-21 07:00:00 9.7 6 Oeste 8 Oeste 0 -- -- 93
2019-06-21 06:00:00 10.4 7 Oeste 11 Noroeste 0 -- -- 93
2019-06-21 05:00:00 12 8 Noroeste 12 Noroeste 0 -- -- 93
2019-06-21 04:00:00 12.5 5 Noroeste 8 Noroeste 0 -- -- 93
2019-06-21 03:00:00 12.6 3 Noroeste 8 Noroeste 0 -- -- 93
2019-06-21 02:00:00 12.9 6 Noroeste 8 Noroeste 0 -- -- 92
2019-06-21 01:00:00 12.7 6 Norte 15 Nordeste 0 -- -- 92
2019-06-21 00:00:00 13.1 10 Nordeste 23 Nordeste 0 -- -- 91
2019-06-20 23:00:00 13.4 15 Nordeste 29 Nordeste 0 -- -- 90
2019-06-20 22:00:00 14.6 21 Nordeste 31 Nordeste 0 -- -- 87
2019-06-20 21:00:00 16 14 Nordeste 31 Sur 2.6 -- -- 82
2019-06-20 20:00:00 20.2 19 Sudeste 42 Este 0 -- -- 50
2019-06-20 19:00:00 24.7 15 Oeste 25 Oeste 0 -- -- 38
2019-06-20 18:00:00 24.8 10 Noroeste 33 Noroeste 0 -- -- 38
2019-06-20 17:00:00 23.7 11 Noroeste 22 Sudeste 0 -- -- 40
2019-06-20 16:00:00 23.4 4 Noroeste 17 Sudeste 0 -- -- 43
2019-06-20 15:00:00 21.5 8 Sur 16 Sudeste 0 -- -- 50
2019-06-20 14:00:00 21.8 5 Sudeste 15 Este 0 -- -- 49
2019-06-20 13:00:00 20.4 4 Nordeste 17 Nordeste 0 -- -- 52
2019-06-20 12:00:00 18.6 8 Este 17 Este 0 -- -- 62
2019-06-20 11:00:00 17.1 8 Nordeste 14 Nordeste 0 -- -- 67
2019-06-20 10:00:00 15.1 8 Nordeste 16 Nordeste 0 -- -- 74
2019-06-20 09:00:00 14.2 6 Norte 13 Norte 0 -- -- 76
2019-06-20 08:00:00 12.4 3 Noroeste 9 Oeste 0 -- -- 78
2019-06-20 07:00:00 11.2 5 Noroeste 9 Nordeste 0 -- -- 78
2019-06-20 06:00:00 12.1 0 Calma 13 Noroeste 0 -- -- 74
2019-06-20 05:00:00 12.7 11 Noroeste 14 Noroeste 0 -- -- 72
2019-06-20 04:00:00 13.1 6 Oeste 8 Oeste 0 -- -- 70
2019-06-20 03:00:00 12.9 0 Calma 13 Noroeste 0 -- -- 71
2019-06-20 02:00:00 12.5 9 Noroeste 15 Oeste 0 -- -- 73
2019-06-20 01:00:00 14.1 11 Noroeste 15 Noroeste 0 -- -- 66
2019-06-20 00:00:00 14.5 10 Noroeste 13 Noroeste 0 -- -- 65
2019-06-19 23:00:00 16.3 9 Oeste 14 Oeste 0 -- -- 59
2019-06-19 22:00:00 19.1 12 Oeste 27 Oeste 0 -- -- 53
2019-06-19 21:00:00 21.3 17 Oeste 35 Oeste 0 -- -- 48
2019-06-19 20:00:00 22.2 23 Oeste 39 Oeste 0 -- -- 46
2019-06-19 19:00:00 22.6 23 Oeste 40 Sudoeste 0 -- -- 45
2019-06-19 18:00:00 22 21 Sudoeste 39 Oeste 0 -- -- 49
2019-06-19 17:00:00 22.4 26 Oeste 40 Sudoeste 0 -- -- 50
2019-06-19 16:00:00 21 23 Sudoeste 34 Sudoeste 0 -- -- 55
2019-06-19 15:00:00 19.4 20 Sudoeste 31 Sudoeste 0 -- -- 68
2019-06-19 14:00:00 18.5 22 Sudoeste 32 Sudoeste 0 -- -- 67
2019-06-19 13:00:00 19.6 17 Oeste 26 Oeste 0 -- -- 59
2019-06-19 12:00:00 19 18 Sudoeste 27 Sudoeste 0 -- -- 62
2019-06-19 11:00:00 17.8 17 Sudoeste 31 Oeste 0 -- -- 69
2019-06-19 10:00:00 16.3 15 Oeste 24 Oeste 0 -- -- 80
2019-06-19 09:00:00 14.7 10 Sudoeste 19 Oeste 0 -- -- 90
2019-06-19 08:00:00 14.8 14 Sudoeste 21 Sudoeste 0 -- -- 86
2019-06-19 07:00:00 14.4 12 Sudoeste 20 Sudoeste 0 -- -- 87
2019-06-19 06:00:00 14.2 13 Sudoeste 22 Sudoeste 0 -- -- 88
2019-06-19 05:00:00 14.9 12 Oeste 31 Sudoeste 0 -- -- 85
2019-06-19 04:00:00 15.2 18 Sudoeste 26 Sudoeste 0 -- -- 81
2019-06-19 03:00:00 14.7 17 Sudoeste 28 Sudoeste 0 -- -- 83
2019-06-19 02:00:00 15.1 19 Sudoeste 28 Sudoeste 0 -- -- 83
2019-06-19 01:00:00 15.5 13 Sudoeste 22 Sudoeste 0 -- -- 81
2019-06-19 00:00:00 16.3 14 Oeste 27 Oeste 0 -- -- 78
2019-06-18 23:00:00 16.8 17 Oeste 28 Oeste 0 -- -- 74
2019-06-18 22:00:00 17.1 14 Sudoeste 32 Sudoeste 0 -- -- 73
2019-06-18 21:00:00 17.3 18 Oeste 36 Oeste 0 -- -- 73
2019-06-18 20:00:00 18.5 21 Oeste 44 Oeste 0 -- -- 66
2019-06-18 19:00:00 20.4 31 Oeste 47 Sudoeste 0 -- -- 57
2019-06-18 18:00:00 22.4 31 Sudoeste 56 Sudoeste 0 -- -- 45
2019-06-18 17:00:00 23.1 35 Sudoeste 57 Sudoeste 0 -- -- 43
2019-06-18 16:00:00 22.8 39 Sudoeste 58 Sudoeste 0 -- -- 47
2019-06-18 15:00:00 22 33 Sudoeste 50 Sudoeste 0 -- -- 52
2019-06-18 14:00:00 21.5 39 Sudoeste 53 Sudoeste 0 -- -- 50
2019-06-18 13:00:00 24.1 31 Sudoeste 44 Sur 0 -- -- 34
2019-06-18 12:00:00 23 27 Sudoeste 43 Sur 0 -- -- 36
2019-06-18 11:00:00 21.3 22 Sudoeste 39 Sudoeste 0 -- -- 37
2019-06-18 10:00:00 20 21 Sudoeste 37 Sudoeste 0 -- -- 28
2019-06-18 09:00:00 18 21 Sudoeste 37 Sudoeste 0 -- -- 31
2019-06-18 08:00:00 16.5 20 Sudoeste 29 Sudoeste 0 -- -- 45
2019-06-18 07:00:00 13.5 15 Sudoeste 21 Sudoeste 0 -- -- 56
2019-06-18 06:00:00 9.5 5 Este 9 Sudeste 0 -- -- 73
2019-06-18 05:00:00 9.6 7 Oeste 9 Oeste 0 -- -- 78
2019-06-18 04:00:00 10.5 2 Oeste 8 Oeste 0 -- -- 72
2019-06-18 03:00:00 12.5 5 Oeste 14 Oeste 0 -- -- 66
2019-06-18 02:00:00 14.2 6 Noroeste 14 Oeste 0 -- -- 62
2019-06-18 01:00:00 16 12 Oeste 15 Oeste 0 -- -- 56
2019-06-18 00:00:00 18.6 5 Nordeste 21 Sudoeste 0 -- -- 43
2019-06-17 23:00:00 18.9 13 Noroeste 32 Oeste 0 -- -- 42
2019-06-17 22:00:00 18.5 22 Oeste 37 Noroeste 0 -- -- 46
2019-06-17 21:00:00 21.2 19 Oeste 28 Noroeste 0 -- -- 34
2019-06-17 20:00:00 22.4 14 Oeste 23 Noroeste 0 -- -- 31
2019-06-17 19:00:00 23.7 17 Oeste 27 Oeste 0 -- -- 30
2019-06-17 18:00:00 25.3 19 Oeste 35 Oeste 0 -- -- 28
2019-06-17 17:00:00 26.1 22 Oeste 34 Oeste 0 -- -- 26
2019-06-17 16:00:00 26.7 26 Sudoeste 42 Sudoeste 0 -- -- 21
2019-06-17 15:00:00 27.8 21 Sudoeste 37 Oeste 0 -- -- 22
2019-06-17 14:00:00 26.8 23 Sudoeste 38 Sudoeste 0 -- -- 24
2019-06-17 13:00:00 25.8 25 Sudoeste 43 Sur 0 -- -- 26
2019-06-17 12:00:00 24.3 14 Sur 28 Sudoeste 0 -- -- 31
2019-06-17 11:00:00 21.5 8 Este 15 Este 0 -- -- 43
2019-06-17 10:00:00 18.6 6 Este 9 Este 0 -- -- 48
2019-06-17 09:00:00 16.4 3 Nordeste 6 Nordeste 0 -- -- 51
2019-06-17 08:00:00 12.2 4 Oeste 8 Oeste 0 -- -- 64
2019-06-17 07:00:00 8.7 3 Oeste 10 Oeste 0 -- -- 69
2019-06-17 06:00:00 9.1 2 Sudoeste 6 Oeste 0 -- -- 65
2019-06-17 05:00:00 10.5 3 Noroeste 10 Oeste 0 -- -- 59
2019-06-17 04:00:00 10.5 3 Sur 6 Sudoeste 0 -- -- 57
2019-06-17 03:00:00 11.2 0 Calma 7 Sudoeste 0 -- -- 53
2019-06-17 02:00:00 12.8 0 Calma 6 Noroeste 0 -- -- 51
2019-06-17 01:00:00 14.8 5 Noroeste 12 Oeste 0 -- -- 43
2019-06-17 00:00:00 15.8 11 Noroeste 13 Noroeste 0 -- -- 42
2019-06-16 23:00:00 18 10 Noroeste 12 Oeste 0 -- -- 38
2019-06-16 22:00:00 21.1 9 Oeste 22 Oeste 0 -- -- 31
2019-06-16 21:00:00 24.9 19 Oeste 24 Oeste 0 -- -- 25
2019-06-16 20:00:00 26.2 18 Oeste 33 Oeste 0 -- -- 24
2019-06-16 19:00:00 27 16 Oeste 27 Sudoeste 0 -- -- 23
2019-06-16 18:00:00 27.1 15 Sudoeste 27 Oeste 0 -- -- 22
2019-06-16 17:00:00 26.9 13 Sudoeste 29 Sudoeste 0 -- -- 22
2019-06-16 16:00:00 26 14 Sur 33 Sur 0 -- -- 24
2019-06-16 15:00:00 25.1 13 Sudoeste 37 Sur 0 -- -- 26
2019-06-16 14:00:00 24.4 6 Este 28 Sudeste 0 -- -- 28
2019-06-16 13:00:00 22.5 10 Este 21 Este 0 -- -- 34
2019-06-16 12:00:00 20.8 10 Nordeste 17 Nordeste 0 -- -- 41
2019-06-16 11:00:00 17.5 6 Norte 18 Nordeste 0 -- -- 52
2019-06-16 10:00:00 14.7 9 Norte 20 Nordeste 0 -- -- 60
2019-06-16 09:00:00 12.8 11 Norte 17 Nordeste 0 -- -- 67
2019-06-16 08:00:00 9.7 8 Noroeste 13 Noroeste 0 -- -- 79
2019-06-16 07:00:00 6.8 10 Noroeste 13 Oeste 0 -- -- 84
2019-06-16 06:00:00 7.3 9 Noroeste 13 Noroeste 0 -- -- 80
2019-06-16 05:00:00 7.9 5 Noroeste 7 Norte 0 -- -- 77
2019-06-16 04:00:00 8.5 5 Norte 9 Norte 0 -- -- 73
2019-06-16 03:00:00 10.1 0 Calma 14 Oeste 0 -- -- 67
2019-06-16 02:00:00 11.3 9 Oeste 13 Oeste 0 -- -- 64
2019-06-16 01:00:00 13.3 11 Noroeste 14 Noroeste 0 -- -- 56
2019-06-16 00:00:00 14 9 Noroeste 16 Sudoeste 0 -- -- 52
2019-06-15 23:00:00 15.1 13 Sudoeste 15 Sudoeste 0 -- -- 48
2019-06-15 22:00:00 18 10 Sudoeste 18 Oeste 0 -- -- 40
2019-06-15 21:00:00 21.4 13 Oeste 24 Oeste 0 -- -- 33
2019-06-15 20:00:00 22.1 15 Sudoeste 31 Oeste 0 -- -- 31
2019-06-15 19:00:00 22.8 16 Oeste 26 Oeste 0 -- -- 29
2019-06-15 18:00:00 23.1 13 Oeste 30 Oeste 0 -- -- 30
2019-06-15 17:00:00 22.7 15 Oeste 30 Noroeste 0 -- -- 29
2019-06-15 16:00:00 21.8 6 Nordeste 29 Sudoeste 0 -- -- 32
2019-06-15 15:00:00 20.7 11 Noroeste 27 Oeste 0 -- -- 33
2019-06-15 14:00:00 19.7 10 Sur 21 Sudoeste 0 -- -- 37
2019-06-15 13:00:00 18.2 5 Noroeste 23 Sudeste 0 -- -- 39
2019-06-15 12:00:00 16.3 6 Sudoeste 24 Sur 0 -- -- 46
2019-06-15 11:00:00 14.7 9 Este 20 Este 0 -- -- 55
2019-06-15 10:00:00 13.5 6 Este 15 Oeste 0 -- -- 59
2019-06-15 09:00:00 11.2 10 Oeste 17 Oeste 0 -- -- 68
2019-06-15 08:00:00 9.5 2 Nordeste 9 Noroeste 0 -- -- 76
2019-06-15 07:00:00 7.3 7 Noroeste 25 Sudoeste 0 -- -- 83
2019-06-15 06:00:00 8.2 17 Oeste 28 Sudoeste 0 -- -- 80
2019-06-15 05:00:00 7.9 7 Noroeste 13 Noroeste 0 -- -- 79
2019-06-15 04:00:00 8.5 6 Noroeste 22 Oeste 0 -- -- 76
2019-06-15 03:00:00 9 8 Noroeste 28 Oeste 0 -- -- 73
2019-06-15 02:00:00 10.3 19 Oeste 32 Oeste 0 -- -- 69
2019-06-15 01:00:00 10.6 21 Oeste 27 Oeste 0 -- -- 68
2019-06-15 00:00:00 12.1 15 Oeste 28 Oeste 0 -- -- 63
2019-06-14 23:00:00 12.9 17 Oeste 34 Oeste 0 -- -- 56
2019-06-14 22:00:00 14.4 24 Oeste 40 Oeste 0 -- -- 53
2019-06-14 21:00:00 16.7 31 Oeste 45 Sudoeste 0 -- -- 45
2019-06-14 20:00:00 17.6 28 Oeste 41 Oeste 0 -- -- 37
2019-06-14 19:00:00 19.6 27 Oeste 44 Oeste 0 -- -- 34
2019-06-14 18:00:00 19.9 29 Oeste 44 Oeste 0 -- -- 34
2019-06-14 17:00:00 20.5 30 Oeste 49 Oeste 0 -- -- 34
2019-06-14 16:00:00 20.9 21 Sudoeste 42 Sudoeste 0 -- -- 33
2019-06-14 15:00:00 20.2 22 Oeste 32 Oeste 0 -- -- 37
2019-06-14 14:00:00 19.5 13 Sudoeste 48 Oeste 0 -- -- 38
2019-06-14 13:00:00 18.6 3 Este 21 Sudeste 0 -- -- 44
2019-06-14 12:00:00 16.9 6 Sudeste 17 Este 0 -- -- 51
2019-06-14 11:00:00 14.9 7 Este 14 Nordeste 0 -- -- 58
2019-06-14 10:00:00 13 7 Nordeste 18 Nordeste 0 -- -- 66
2019-06-14 09:00:00 11.1 8 Norte 14 Noroeste 0 -- -- 74
2019-06-14 08:00:00 8.3 8 Noroeste 13 Noroeste 0 -- -- 80
2019-06-14 07:00:00 5.7 11 Noroeste 12 Oeste 0 -- -- 84
2019-06-14 06:00:00 5.9 10 Noroeste 12 Noroeste 0 -- -- 79
2019-06-14 05:00:00 6.1 6 Noroeste 9 Norte 0 -- -- 74
2019-06-14 04:00:00 7.1 6 Noroeste 14 Oeste 0 -- -- 70
2019-06-14 03:00:00 7.4 12 Oeste 13 Oeste 0 -- -- 67
2019-06-14 02:00:00 8.9 4 Noroeste 11 Oeste 0 -- -- 61
2019-06-14 01:00:00 10.2 12 Oeste 13 Oeste 0 -- -- 57
2019-06-14 00:00:00 11.1 8 Noroeste 14 Noroeste 0 -- -- 54
2019-06-13 23:00:00 12.7 9 Oeste 12 Oeste 0 -- -- 50
2019-06-13 22:00:00 16.9 10 Noroeste 28 Oeste 0 -- -- 39
2019-06-13 21:00:00 19.7 19 Oeste 30 Sudoeste 0 -- -- 32
2019-06-13 20:00:00 20.8 19 Oeste 33 Oeste 0 -- -- 28
2019-06-13 19:00:00 21.5 24 Oeste 47 Oeste 0 -- -- 29
2019-06-13 18:00:00 21.7 25 Oeste 40 Oeste 0 -- -- 28
2019-06-13 17:00:00 21.9 23 Oeste 39 Oeste 0 -- -- 28
2019-06-13 16:00:00 21.3 19 Sudoeste 36 Oeste 0 -- -- 31
2019-06-13 15:00:00 20.7 15 Sudoeste 35 Sudoeste 0 -- -- 32
2019-06-13 14:00:00 19.5 13 Sudoeste 35 Sudoeste 0 -- -- 35
2019-06-13 13:00:00 18.4 9 Sur 21 Sur 0 -- -- 38
2019-06-13 12:00:00 16.3 4 Este 14 Este 0 -- -- 47
2019-06-13 11:00:00 14.6 5 Este 14 Nordeste 0 -- -- 53
2019-06-13 10:00:00 12.5 6 Nordeste 15 Nordeste 0 -- -- 59
2019-06-13 09:00:00 11 6 Nordeste 13 Noroeste 0 -- -- 65
2019-06-13 08:00:00 7.3 9 Noroeste 12 Noroeste 0 -- -- 77
2019-06-13 07:00:00 4.6 9 Noroeste 13 Oeste 0 -- -- 81
2019-06-13 06:00:00 5.3 11 Oeste 12 Oeste 0 -- -- 78
2019-06-13 05:00:00 5.6 7 Noroeste 12 Noroeste 0 -- -- 73
2019-06-13 04:00:00 6.6 8 Noroeste 13 Noroeste 0 -- -- 69
2019-06-13 03:00:00 8.2 6 Noroeste 15 Noroeste 0 -- -- 63
2019-06-13 02:00:00 8 8 Noroeste 10 Oeste 0 -- -- 60
2019-06-13 01:00:00 9.6 9 Oeste 15 Noroeste 0 -- -- 57
2019-06-13 00:00:00 11.4 10 Noroeste 14 Noroeste 0 -- -- 48
2019-06-12 23:00:00 13.7 10 Noroeste 17 Oeste 0 -- -- 41
2019-06-12 22:00:00 16.3 14 Oeste 25 Oeste 0 -- -- 35
2019-06-12 21:00:00 19.3 18 Oeste 26 Oeste 0 -- -- 29
2019-06-12 20:00:00 20.3 11 Sudoeste 28 Sudoeste 0 -- -- 26
2019-06-12 19:00:00 20.8 9 Sudoeste 33 Sudoeste 0 -- -- 23
2019-06-12 18:00:00 20.8 15 Sudoeste 34 Oeste 0 -- -- 25
2019-06-12 17:00:00 20.3 11 Sudoeste 25 Sudoeste 0 -- -- 25
2019-06-12 16:00:00 19.8 16 Sudoeste 25 Sudoeste 0 -- -- 25
2019-06-12 15:00:00 18.4 12 Sudoeste 27 Sudoeste 0 -- -- 28
2019-06-12 14:00:00 17.2 5 Sur 32 Oeste 0 -- -- 29
2019-06-12 13:00:00 16.6 7 Oeste 24 Sudoeste 0 -- -- 33
2019-06-12 12:00:00 15.2 4 Nordeste 20 Este 0 -- -- 37
2019-06-12 11:00:00 13.4 6 Este 18 Este 0 -- -- 40
2019-06-12 10:00:00 11.5 4 Noroeste 15 Este 0 -- -- 47
2019-06-12 09:00:00 9.7 0 Calma 4 Norte 0 -- -- 57
2019-06-12 08:00:00 5.7 0 Calma 5 Oeste 0 -- -- 73
2019-06-12 07:00:00 2.9 3 Oeste 5 Sudoeste 0 -- -- 78
2019-06-12 06:00:00 4.4 4 Oeste 12 Oeste 0 -- -- 72
2019-06-12 05:00:00 6.2 8 Oeste 13 Noroeste 0 -- -- 67
2019-06-12 04:00:00 7.3 8 Norte 16 Norte 0 -- -- 63
2019-06-12 03:00:00 7.1 4 Norte 12 Nordeste 0 -- -- 62
2019-06-12 02:00:00 7.6 6 Nordeste 9 Nordeste 0 -- -- 60
2019-06-12 01:00:00 9.5 4 Nordeste 15 Norte 0 -- -- 53
2019-06-12 00:00:00 10.9 8 Norte 25 Norte 0 -- -- 50
2019-06-11 23:00:00 12.2 15 Norte 28 Norte 0 -- -- 46
2019-06-11 22:00:00 14.2 20 Norte 35 Norte 0 -- -- 41
2019-06-11 21:00:00 16.7 21 Norte 33 Norte 0 -- -- 34
2019-06-11 20:00:00 18.3 18 Norte 43 Norte 0 -- -- 31
2019-06-11 19:00:00 18.9 16 Norte 32 Noroeste 0 -- -- 30
2019-06-11 18:00:00 18.8 19 Norte 39 Nordeste 0 -- -- 28
2019-06-11 17:00:00 19.2 19 Norte 38 Nordeste 0 -- -- 27
2019-06-11 16:00:00 17.7 16 Nordeste 39 Nordeste 0 -- -- 29
2019-06-11 15:00:00 17.2 19 Norte 48 Nordeste 0 -- -- 30
2019-06-11 14:00:00 17.3 15 Norte 35 Norte 0 -- -- 30
2019-06-11 13:00:00 16.4 18 Nordeste 35 Nordeste 0 -- -- 33
2019-06-11 12:00:00 15.1 24 Norte 41 Norte 0 -- -- 34
2019-06-11 11:00:00 13.5 19 Norte 31 Nordeste 0 -- -- 47
2019-06-11 10:00:00 12.9 19 Norte 33 Norte 0 -- -- 49
2019-06-11 09:00:00 12.1 22 Norte 38 Norte 0 -- -- 50
2019-06-11 08:00:00 10.4 9 Norte 25 Norte 0 -- -- 56
2019-06-11 07:00:00 10.5 15 Norte 24 Norte 0 -- -- 55
2019-06-11 06:00:00 10.6 10 Norte 21 Norte 0 -- -- 59
2019-06-11 05:00:00 11.2 9 Norte 22 Norte 0 -- -- 60
2019-06-11 04:00:00 11.8 13 Nordeste 22 Nordeste 0 -- -- 60
2019-06-11 03:00:00 12.4 10 Nordeste 22 Norte 0 -- -- 60
2019-06-11 02:00:00 13 15 Norte 31 Norte 0 -- -- 59
2019-06-11 01:00:00 13.8 10 Norte 22 Norte 0 -- -- 53
2019-06-11 00:00:00 14.7 14 Norte 23 Norte 0 -- -- 48
2019-06-10 23:00:00 15.7 15 Norte 26 Norte 0 -- -- 46
2019-06-10 22:00:00 17.4 14 Norte 34 Oeste 0 -- -- 42
2019-06-10 21:00:00 19.3 25 Oeste 36 Oeste 0 -- -- 36
2019-06-10 20:00:00 21.1 21 Oeste 37 Oeste 0 -- -- 35
2019-06-10 19:00:00 22.7 20 Sudoeste 33 Oeste 0 -- -- 27
2019-06-10 18:00:00 22.1 11 Oeste 30 Oeste 0 -- -- 29
2019-06-10 17:00:00 21.8 16 Oeste 29 Oeste 0 -- -- 30
2019-06-10 16:00:00 21.4 10 Oeste 28 Oeste 0 -- -- 30
2019-06-10 15:00:00 19.9 14 Noroeste 29 Noroeste 0 -- -- 34
2019-06-10 14:00:00 19 12 Noroeste 21 Noroeste 0 -- -- 37
2019-06-10 13:00:00 17.5 7 Sudoeste 15 Oeste 0 -- -- 46
2019-06-10 12:00:00 15.5 5 Sur 16 Oeste 0 -- -- 53
2019-06-10 11:00:00 14.3 6 Nordeste 17 Este 0 -- -- 61
2019-06-10 10:00:00 12.9 5 Nordeste 12 Este 0 -- -- 68
2019-06-10 09:00:00 11.1 4 Este 8 Este 0 -- -- 76
2019-06-10 08:00:00 8.4 3 Noroeste 8 Noroeste 0 -- -- 85
2019-06-10 07:00:00 6.8 5 Noroeste 8 Norte 0 -- -- 89
2019-06-10 06:00:00 5.4 3 Noroeste 5 Noroeste 0 -- -- 89
2019-06-10 05:00:00 5.8 3 Oeste 5 Oeste 0 -- -- 87
2019-06-10 04:00:00 7 0 Calma 2 Sur 0 -- -- 84
2019-06-10 03:00:00 9.3 0 Calma 8 Nordeste 0 -- -- 81
2019-06-10 02:00:00 10.6 5 Nordeste 11 Este 0 -- -- 76
2019-06-10 01:00:00 12.6 10 Este 17 Norte 0 -- -- 72
2019-06-10 00:00:00 14.4 12 Norte 20 Norte 0 -- -- 55
2019-06-09 23:00:00 14.6 8 Noroeste 20 Noroeste 0 -- -- 52
2019-06-09 22:00:00 16.5 6 Noroeste 23 Norte 0 -- -- 49
2019-06-09 21:00:00 19.3 15 Norte 37 Oeste 0 -- -- 43
2019-06-09 20:00:00 19.4 27 Oeste 39 Oeste 0 -- -- 41
2019-06-09 19:00:00 20.5 30 Oeste 44 Oeste 0 -- -- 38
2019-06-09 18:00:00 21.4 31 Oeste 45 Oeste 0 -- -- 36
2019-06-09 17:00:00 22.5 23 Oeste 37 Oeste 0 -- -- 32
2019-06-09 16:00:00 22.3 23 Oeste 39 Oeste 0 -- -- 31
2019-06-09 15:00:00 21.6 18 Oeste 35 Sudoeste 0 -- -- 33
2019-06-09 14:00:00 20.9 17 Sudoeste 31 Sudoeste 0 -- -- 32
2019-06-09 13:00:00 20.1 14 Sudoeste 27 Sudoeste 0 -- -- 34
2019-06-09 12:00:00 18.3 13 Sudoeste 25 Sudoeste 0 -- -- 39
2019-06-09 11:00:00 16.3 8 Oeste 17 Este 0 -- -- 55
2019-06-09 10:00:00 14.3 5 Nordeste 11 Este 0 -- -- 67
2019-06-09 09:00:00 12.6 5 Sudeste 8 Sudeste 0 -- -- 74
2019-06-09 08:00:00 9.3 0 Calma 6 Oeste 0 -- -- 87
2019-06-09 07:00:00 6.6 5 Noroeste 6 Noroeste 0 -- -- 88
2019-06-09 06:00:00 7.7 2 Oeste 4 Sur 0 -- -- 86
2019-06-09 05:00:00 8.7 3 Sur 7 Sur 0 -- -- 82
2019-06-09 04:00:00 10.2 0 Calma 7 Este 0 -- -- 75
2019-06-09 03:00:00 12.6 6 Nordeste 13 Nordeste 0 -- -- 67
2019-06-09 02:00:00 14.2 0 Calma 9 Oeste 0 -- -- 55
2019-06-09 01:00:00 15.1 10 Oeste 14 Noroeste 0 -- -- 50
2019-06-09 00:00:00 16.2 11 Noroeste 17 Oeste 0 -- -- 46
2019-06-08 23:00:00 16.6 15 Oeste 19 Oeste 0 -- -- 45
2019-06-08 22:00:00 18.4 9 Noroeste 15 Noroeste 0 -- -- 40
2019-06-08 21:00:00 20.6 12 Noroeste 22 Noroeste 0 -- -- 31
2019-06-08 20:00:00 21.7 16 Oeste 26 Oeste 0 -- -- 28
2019-06-08 19:00:00 22.3 15 Oeste 24 Sudoeste 0 -- -- 27
2019-06-08 18:00:00 22.8 11 Sudoeste 24 Sudoeste 0 -- -- 25
2019-06-08 17:00:00 22.7 12 Sudoeste 29 Sudoeste 0 -- -- 24
2019-06-08 16:00:00 22.1 9 Sudoeste 23 Sudoeste 0 -- -- 27
2019-06-08 15:00:00 20.9 7 Sudeste 25 Sudeste 0 -- -- 31
2019-06-08 14:00:00 19.1 15 Este 23 Este 0 -- -- 35
2019-06-08 13:00:00 17.4 11 Nordeste 24 Este 0 -- -- 42
2019-06-08 12:00:00 16 10 Nordeste 20 Nordeste 0 -- -- 46
2019-06-08 11:00:00 13.4 12 Nordeste 18 Norte 0 -- -- 57
2019-06-08 10:00:00 10.5 8 Norte 15 Nordeste 0 -- -- 68
2019-06-08 09:00:00 9 8 Norte 15 Nordeste 0 -- -- 73
2019-06-08 08:00:00 6.7 8 Noroeste 14 Oeste 0 -- -- 82
2019-06-08 07:00:00 3.7 10 Noroeste 14 Oeste 0 -- -- 88
2019-06-08 06:00:00 4.1 4 Noroeste 11 Oeste 0 -- -- 88
2019-06-08 05:00:00 5.5 10 Oeste 12 Noroeste 0 -- -- 84
2019-06-08 04:00:00 5.5 11 Oeste 13 Oeste 0 -- -- 84
2019-06-08 03:00:00 4.9 4 Oeste 13 Noroeste 0 -- -- 83
2019-06-08 02:00:00 5.8 9 Noroeste 13 Oeste 0 -- -- 80
2019-06-08 01:00:00 6.8 5 Oeste 7 Oeste 0 -- -- 79
2019-06-08 00:00:00 8.8 6 Noroeste 13 Oeste 0 -- -- 71
2019-06-07 23:00:00 10.1 10 Noroeste 12 Noroeste 0 -- -- 66
2019-06-07 22:00:00 13 8 Oeste 26 Oeste 0 -- -- 55
2019-06-07 21:00:00 15.6 19 Oeste 28 Oeste 0 -- -- 43
2019-06-07 20:00:00 16.8 14 Oeste 32 Oeste 0 -- -- 37
2019-06-07 19:00:00 17.1 21 Oeste 35 Oeste 0 -- -- 38
2019-06-07 18:00:00 16.2 21 Oeste 39 Oeste 0 -- -- 44
2019-06-07 17:00:00 16.6 22 Oeste 40 Oeste 0 -- -- 38
2019-06-07 16:00:00 16.6 22 Oeste 39 Oeste 0 -- -- 39
2019-06-07 15:00:00 15.9 20 Oeste 38 Sudoeste 0 -- -- 43
2019-06-07 14:00:00 14.9 21 Oeste 33 Oeste 0 -- -- 47
2019-06-07 13:00:00 13.1 15 Oeste 39 Oeste 0 -- -- 53
2019-06-07 12:00:00 12.7 22 Oeste 35 Oeste 0 -- -- 54
2019-06-07 11:00:00 11.2 23 Oeste 37 Oeste 0 -- -- 66
2019-06-07 10:00:00 9.6 25 Oeste 42 Oeste 0 -- -- 73
2019-06-07 09:00:00 8.4 31 Oeste 41 Oeste 0 -- -- 76
2019-06-07 08:00:00 6.9 4 Oeste 24 Sudoeste 0 -- -- 88
2019-06-07 07:00:00 6.3 15 Sudoeste 34 Sudoeste 0 -- -- 88
2019-06-07 06:00:00 6.6 18 Sudoeste 42 Sudoeste 0 -- -- 87
2019-06-07 05:00:00 7.5 23 Oeste 39 Oeste 0 -- -- 86
2019-06-07 04:00:00 7.5 28 Oeste 44 Oeste 0 -- -- 84
2019-06-07 03:00:00 7.6 32 Oeste 47 Sudoeste 0 -- -- 86
2019-06-07 02:00:00 7.9 32 Oeste 49 Sudoeste 0 -- -- 86
2019-06-07 01:00:00 8 29 Sudoeste 42 Oeste 0 -- -- 87
2019-06-07 00:00:00 8.5 28 Sudoeste 43 Sudoeste 0 -- -- 86
2019-06-06 23:00:00 9.2 26 Oeste 46 Oeste 0 -- -- 85
2019-06-06 22:00:00 9.8 27 Oeste 54 Oeste 1.2 -- -- 84
2019-06-06 21:00:00 12.2 36 Sudoeste 59 Sudoeste 1.2 -- -- 85
2019-06-06 20:00:00 13.3 28 Sudoeste 51 Sudoeste 0.6 -- -- 78
2019-06-06 19:00:00 14.5 31 Sudoeste 61 Sudoeste 0 -- -- 66
2019-06-06 18:00:00 17.2 40 Sudoeste 66 Sur 0 -- -- 49
2019-06-06 17:00:00 18.3 41 Sudoeste 68 Sudoeste 0 -- -- 41
2019-06-06 16:00:00 20.3 36 Sudoeste 56 Sur 0 -- -- 33
2019-06-06 15:00:00 17.8 27 Sudoeste 44 Sudoeste 0 -- -- 35
2019-06-06 14:00:00 17 29 Sudoeste 40 Sudoeste 0 -- -- 35
2019-06-06 13:00:00 15.6 25 Sudoeste 37 Sur 0 -- -- 40
2019-06-06 12:00:00 14.3 17 Sudoeste 35 Sur 0 -- -- 45
2019-06-06 11:00:00 13.4 17 Sur 31 Sur 0 -- -- 49
2019-06-06 10:00:00 11.4 10 Sudoeste 17 Sudoeste 0 -- -- 57
2019-06-06 09:00:00 9.9 8 Sudoeste 13 Sudoeste 0 -- -- 65
2019-06-06 08:00:00 8.2 9 Sudoeste 14 Sudoeste 0 -- -- 73
2019-06-06 07:00:00 5 4 Noroeste 10 Oeste 0 -- -- 81
2019-06-06 06:00:00 4.2 0 Calma 6 Sudeste 0 -- -- 79
2019-06-06 05:00:00 5.2 0 Calma 13 Noroeste 0 -- -- 75
2019-06-06 04:00:00 6.4 8 Noroeste 19 Oeste 0 -- -- 71
2019-06-06 03:00:00 7.7 10 Noroeste 25 Oeste 0 -- -- 66
2019-06-06 02:00:00 8.5 12 Oeste 20 Oeste 0 -- -- 63
2019-06-06 01:00:00 9.6 10 Oeste 17 Oeste 0 -- -- 57
2019-06-06 00:00:00 11.2 11 Oeste 25 Oeste 0 -- -- 50
2019-06-05 23:00:00 12.4 13 Oeste 23 Oeste 0 -- -- 46
2019-06-05 22:00:00 13 18 Oeste 29 Oeste 0 -- -- 44
2019-06-05 21:00:00 14.3 21 Oeste 35 Oeste 0 -- -- 41
2019-06-05 20:00:00 15.2 23 Oeste 37 Oeste 0 -- -- 41
2019-06-05 19:00:00 16.1 26 Oeste 38 Noroeste 0 -- -- 38
2019-06-05 18:00:00 16.9 26 Oeste 45 Oeste 0 -- -- 34
2019-06-05 17:00:00 17.3 27 Oeste 52 Oeste 0 -- -- 33
2019-06-05 16:00:00 17.8 26 Oeste 42 Oeste 0 -- -- 32
2019-06-05 15:00:00 17.7 28 Oeste 46 Oeste 0 -- -- 33
2019-06-05 14:00:00 17 29 Oeste 43 Oeste 0 -- -- 37
2019-06-05 13:00:00 16 25 Oeste 41 Oeste 0 -- -- 41
2019-06-05 12:00:00 15.3 24 Noroeste 33 Oeste 0 -- -- 43
2019-06-05 11:00:00 14.5 13 Noroeste 30 Oeste 0 -- -- 46
2019-06-05 10:00:00 12 21 Oeste 33 Oeste 0 -- -- 59
2019-06-05 09:00:00 10.4 19 Oeste 28 Oeste 0 -- -- 65
2019-06-05 08:00:00 7.5 14 Oeste 30 Oeste 0 -- -- 77
2019-06-05 07:00:00 7.2 13 Noroeste 18 Oeste 0 -- -- 80
2019-06-05 06:00:00 7.1 10 Noroeste 25 Oeste 0 -- -- 79
2019-06-05 05:00:00 7.7 15 Oeste 21 Oeste 0 -- -- 76
2019-06-05 04:00:00 7.8 12 Oeste 22 Oeste 0 -- -- 75
2019-06-05 03:00:00 9 16 Oeste 26 Oeste 0 -- -- 68
2019-06-05 02:00:00 10.2 17 Oeste 27 Oeste 0 -- -- 63
2019-06-05 01:00:00 11.2 14 Noroeste 28 Oeste 0 -- -- 60
2019-06-05 00:00:00 12.4 20 Oeste 28 Oeste 0 -- -- 55
2019-06-04 23:00:00 13.8 19 Oeste 28 Oeste 0 -- -- 50
2019-06-04 22:00:00 15.6 18 Oeste 29 Noroeste 0 -- -- 46
2019-06-04 21:00:00 17.3 21 Oeste 36 Oeste 0 -- -- 44
2019-06-04 20:00:00 17.9 31 Oeste 42 Oeste 0 -- -- 45
2019-06-04 19:00:00 18.7 29 Oeste 40 Oeste 0 -- -- 47
2019-06-04 18:00:00 18.8 23 Oeste 35 Oeste 0 -- -- 54
2019-06-04 17:00:00 17.3 30 Oeste 47 Oeste 0 -- -- 59
2019-06-04 16:00:00 18.8 37 Oeste 50 Oeste 0 -- -- 59
2019-06-04 15:00:00 19.6 28 Oeste 45 Oeste 0 -- -- 54
2019-06-04 14:00:00 20.2 27 Oeste 42 Oeste 0 -- -- 51
2019-06-04 13:00:00 19.6 23 Oeste 44 Sudoeste 0 -- -- 53
2019-06-04 12:00:00 19 27 Oeste 40 Sudoeste 0 -- -- 55
2019-06-04 11:00:00 16.9 26 Oeste 41 Oeste 0 -- -- 61
2019-06-04 10:00:00 14.4 31 Oeste 50 Oeste 0 -- -- 69
2019-06-04 09:00:00 13.7 32 Oeste 46 Oeste 0 -- -- 69
2019-06-04 08:00:00 12.1 31 Oeste 43 Oeste 0 -- -- 77
2019-06-04 07:00:00 11.4 11 Noroeste 42 Sudoeste 0 -- -- 81
2019-06-04 06:00:00 11.8 24 Sudoeste 36 Oeste 0 -- -- 80
2019-06-04 05:00:00 12.5 21 Oeste 32 Oeste 0 -- -- 81
2019-06-04 04:00:00 12.8 19 Sudoeste 38 Oeste 0 -- -- 81
2019-06-04 03:00:00 14 26 Oeste 39 Oeste 0 -- -- 76
2019-06-04 02:00:00 15 25 Oeste 39 Oeste 0 -- -- 72
2019-06-04 01:00:00 16.1 17 Oeste 26 Oeste 0 -- -- 70
2019-06-04 00:00:00 17.6 16 Oeste 26 Oeste 0 -- -- 65
2019-06-03 23:00:00 19.5 15 Oeste 23 Oeste 0 -- -- 60
2019-06-03 22:00:00 21.9 19 Oeste 35 Oeste 0 -- -- 55
2019-06-03 21:00:00 24.7 21 Oeste 34 Oeste 0 -- -- 48
2019-06-03 20:00:00 26.7 22 Oeste 44 Oeste 0 -- -- 40
2019-06-03 19:00:00 27.4 25 Oeste 41 Sudoeste 0 -- -- 36
2019-06-03 18:00:00 27.4 25 Oeste 46 Oeste 0 -- -- 33
2019-06-03 17:00:00 27.6 25 Sudoeste 44 Sudoeste 0 -- -- 34
2019-06-03 16:00:00 27.4 25 Oeste 41 Oeste 0 -- -- 34
2019-06-03 15:00:00 27.2 24 Oeste 38 Oeste 0 -- -- 37
2019-06-03 14:00:00 26.6 17 Sudoeste 31 Sudoeste 0 -- -- 39
2019-06-03 13:00:00 25.7 18 Oeste 30 Oeste 0 -- -- 39
2019-06-03 12:00:00 24.1 13 Oeste 39 Sudoeste 0 -- -- 39
2019-06-03 11:00:00 22.8 18 Sudoeste 26 Sudoeste 0 -- -- 36
2019-06-03 10:00:00 21 12 Oeste 27 Sudoeste 0 -- -- 37
2019-06-03 09:00:00 18.8 18 Sudoeste 28 Oeste 0 -- -- 38
2019-06-03 08:00:00 16.4 10 Oeste 26 Sudoeste 0 -- -- 46
2019-06-03 07:00:00 16 19 Sudoeste 27 Oeste 0 -- -- 47
2019-06-03 06:00:00 16 18 Sudoeste 23 Sudoeste 0 -- -- 50
2019-06-03 05:00:00 17.2 10 Oeste 21 Sudoeste 0 -- -- 46
2019-06-03 04:00:00 16.8 5 Sudoeste 9 Noroeste 0 -- -- 50
2019-06-03 03:00:00 17.9 3 Este 7 Oeste 0 -- -- 48
2019-06-03 02:00:00 18.6 0 Calma 5 Oeste 0 -- -- 46
2019-06-03 01:00:00 19.2 5 Oeste 16 Oeste 0 -- -- 45
2019-06-03 00:00:00 19.8 5 Noroeste 16 Oeste 0 -- -- 38
2019-06-02 23:00:00 21.1 10 Sudoeste 12 Oeste 0 -- -- 34
2019-06-02 22:00:00 23.3 9 Oeste 22 Oeste 0 -- -- 33
2019-06-02 21:00:00 25.6 13 Noroeste 24 Oeste 0 -- -- 26
2019-06-02 20:00:00 27.3 19 Oeste 41 Oeste 0 -- -- 24
2019-06-02 19:00:00 29.1 20 Oeste 33 Oeste 0 -- -- 22
2019-06-02 18:00:00 28.6 19 Oeste 32 Oeste 0 -- -- 21
2019-06-02 17:00:00 28.9 24 Oeste 43 Oeste 0 -- -- 19
2019-06-02 16:00:00 29.6 24 Oeste 39 Sudoeste 0 -- -- 19
2019-06-02 15:00:00 29.2 15 Oeste 36 Oeste 0 -- -- 23
2019-06-02 14:00:00 28.6 18 Oeste 31 Oeste 0 -- -- 21
2019-06-02 13:00:00 27.6 19 Oeste 32 Oeste 0 -- -- 21
2019-06-02 12:00:00 27.4 19 Oeste 28 Oeste 0 -- -- 25
2019-06-02 11:00:00 25.8 20 Sudoeste 27 Oeste 0 -- -- 24
2019-06-02 10:00:00 20.3 2 Este 4 Este 0 -- -- 44
2019-06-02 09:00:00 15.4 0 Calma 7 Sudeste 0 -- -- 58
2019-06-02 08:00:00 13.3 3 Nordeste 5 Noroeste 0 -- -- 63
2019-06-02 07:00:00 12.4 2 Nordeste 10 Noroeste 0 -- -- 59
2019-06-02 06:00:00 13.1 6 Noroeste 12 Oeste 0 -- -- 54
2019-06-02 05:00:00 12.8 7 Noroeste 10 Noroeste 0 -- -- 57
2019-06-02 04:00:00 13.6 4 Oeste 8 Sudeste 0 -- -- 59
2019-06-02 03:00:00 15 5 Sudeste 10 Sudeste 0 -- -- 52
2019-06-02 02:00:00 16.8 3 Oeste 11 Oeste 0 -- -- 48
2019-06-02 01:00:00 18.3 9 Oeste 15 Oeste 0 -- -- 43
2019-06-02 00:00:00 21.7 11 Noroeste 17 Noroeste 0 -- -- 34
2019-06-01 23:00:00 23.2 14 Oeste 19 Noroeste 0 -- -- 34
2019-06-01 22:00:00 25.2 11 Oeste 19 Noroeste 0 -- -- 34
2019-06-01 21:00:00 30 13 Noroeste 25 Noroeste 0 -- -- 26
2019-06-01 20:00:00 31.4 17 Oeste 30 Oeste 0 -- -- 23
2019-06-01 19:00:00 32 22 Oeste 33 Oeste 0 -- -- 22
2019-06-01 18:00:00 32.2 15 Oeste 35 Oeste 0 -- -- 21
2019-06-01 17:00:00 32.4 15 Noroeste 36 Oeste 0 -- -- 20
2019-06-01 16:00:00 32.4 13 Oeste 38 Oeste 0 -- -- 20
2019-06-01 15:00:00 32 17 Oeste 33 Oeste 0 -- -- 21
2019-06-01 14:00:00 30.7 11 Sudoeste 27 Sudoeste 0 -- -- 22
2019-06-01 13:00:00 29.2 7 Este 15 Sudeste 0 -- -- 30
2019-06-01 12:00:00 27.3 4 Este 10 Oeste 0 -- -- 31
2019-06-01 11:00:00 24.5 4 Nordeste 13 Nordeste 0 -- -- 35
2019-06-01 10:00:00 22.2 8 Norte 13 Nordeste 0 -- -- 40
2019-06-01 09:00:00 19.8 6 Norte -- -- -- -- -- 45
2019-06-01 08:00:00 15 8 Noroeste 10 Noroeste 0 -- -- 57
2019-06-01 07:00:00 12.5 9 Noroeste 16 Noroeste 0 -- -- 60
2019-06-01 06:00:00 12.2 13 Oeste 15 Oeste 0 -- -- 62
2019-06-01 05:00:00 12.2 8 Oeste 12 Noroeste 0 -- -- 68
2019-06-01 04:00:00 13.2 7 Noroeste 11 Oeste 0 -- -- 59
2019-06-01 03:00:00 15.2 9 Oeste 19 Nordeste 0 -- -- 48
2019-06-01 02:00:00 13.7 5 Noroeste 12 Noroeste 0 -- -- 48
2019-06-01 01:00:00 15.4 9 Oeste 13 Este 0 -- -- 42
2019-06-01 00:00:00 17.2 7 Oeste 12 Noroeste 0 -- -- 38
2019-05-31 23:00:00 18.9 9 Noroeste 11 Noroeste 0 -- -- 36
2019-05-31 22:00:00 22.7 5 Sudoeste 13 Este 0 -- -- 29
2019-05-31 21:00:00 29.4 9 Este 14 Nordeste 0 -- -- 18
2019-05-31 20:00:00 30.6 10 Nordeste 18 Este 0 -- -- 17
2019-05-31 19:00:00 30.9 12 Este 23 Este 0 -- -- 16
2019-05-31 18:00:00 31.2 9 Este 19 Sudeste 0 -- -- 18
2019-05-31 17:00:00 30.8 7 Este 30 Nordeste 0 -- -- 20
2019-05-31 16:00:00 30 10 Sudoeste 23 Nordeste 0 -- -- 22
2019-05-31 15:00:00 29.5 10 Nordeste 22 Sur 0 -- -- 23
2019-05-31 14:00:00 28.2 8 Este 19 Este 0 -- -- 25
2019-05-31 13:00:00 27 9 Sudeste 19 Este 0 -- -- 29
2019-05-31 12:00:00 25.4 9 Nordeste 18 Nordeste 0 -- -- 36
2019-05-31 11:00:00 23.2 11 Nordeste 18 Nordeste 0 -- -- 43
2019-05-31 10:00:00 20.5 11 Nordeste 18 Nordeste 0 -- -- 49
2019-05-31 09:00:00 18.7 6 Norte 13 Noroeste 0 -- -- 56
2019-05-31 08:00:00 14.7 9 Noroeste 13 Oeste 0 -- -- 71
2019-05-31 07:00:00 11.8 12 Oeste 14 Noroeste 0 -- -- 80
2019-05-31 06:00:00 11.4 12 Oeste 13 Oeste 0 -- -- 81
2019-05-31 05:00:00 12.4 6 Noroeste 12 Noroeste 0 -- -- 75
2019-05-31 04:00:00 12.6 9 Noroeste 12 Noroeste 0 -- -- 69
2019-05-31 03:00:00 13.5 6 Noroeste 10 Noroeste 0 -- -- 63
2019-05-31 02:00:00 15.1 3 Norte 10 Oeste 0 -- -- 57
2019-05-31 01:00:00 15.7 4 Noroeste 8 Noroeste 0 -- -- 54
2019-05-31 00:00:00 16.5 4 Noroeste 8 Noroeste 0 -- -- 52
2019-05-30 23:00:00 18.4 3 Noroeste 5 Noroeste 0 -- -- 46
2019-05-30 22:00:00 23.2 8 Sudeste 19 Este 0 -- -- 37
2019-05-30 21:00:00 27.6 14 Este 23 Este 0 -- -- 25
2019-05-30 20:00:00 28.9 10 Nordeste 24 Nordeste 0 -- -- 24
2019-05-30 19:00:00 29 13 Nordeste 29 Este 0 -- -- 23
2019-05-30 18:00:00 28.8 15 Nordeste 27 Este 0 -- -- 23
2019-05-30 17:00:00 28.6 13 Norte 26 Nordeste 0 -- -- 25
2019-05-30 16:00:00 27.7 10 Nordeste 26 Sudeste 0 -- -- 26
2019-05-30 15:00:00 26.8 8 Sudeste 25 Este 0 -- -- 28
2019-05-30 14:00:00 24.9 9 Sudeste 22 Este 0 -- -- 33
2019-05-30 13:00:00 23.2 9 Este 20 Este 0 -- -- 38
2019-05-30 12:00:00 21.3 9 Este 18 Este 0 -- -- 43
2019-05-30 11:00:00 19 11 Este 18 Este 0 -- -- 49
2019-05-30 10:00:00 16.9 9 Nordeste 15 Nordeste 0 -- -- 55
2019-05-30 09:00:00 14.6 2 Norte 10 Oeste 0 -- -- 65
2019-05-30 08:00:00 10.9 9 Noroeste 11 Noroeste 0 -- -- 77
2019-05-30 07:00:00 7.5 5 Noroeste 9 Noroeste 0 -- -- 86
2019-05-30 06:00:00 8.1 4 Oeste 10 Oeste 0 -- -- 84
2019-05-30 05:00:00 8.5 5 Noroeste 10 Noroeste 0 -- -- 81
2019-05-30 04:00:00 8.9 4 Noroeste 11 Oeste 0 -- -- 79
2019-05-30 03:00:00 9.7 8 Oeste 10 Oeste 0 -- -- 75
2019-05-30 02:00:00 10.9 4 Noroeste 8 Oeste 0 -- -- 72
2019-05-30 01:00:00 12.7 3 Noroeste 4 Noroeste 0 -- -- 66
2019-05-30 00:00:00 15.3 3 Este 11 Este 0 -- -- 56
2019-05-29 23:00:00 17 5 Sudeste 10 Sudeste 0 -- -- 50
2019-05-29 22:00:00 19.6 7 Sudeste 15 Este 0 -- -- 43
2019-05-29 21:00:00 23.7 13 Este 23 Este 0 -- -- 32
2019-05-29 20:00:00 24.6 14 Este 25 Este 0 -- -- 31
2019-05-29 19:00:00 24.9 13 Este 25 Este 0 -- -- 30
2019-05-29 18:00:00 24.4 15 Nordeste 29 Nordeste 0 -- -- 30
2019-05-29 17:00:00 23.9 11 Nordeste 28 Nordeste 0 -- -- 32
2019-05-29 16:00:00 23 14 Nordeste 26 Nordeste 0 -- -- 35
2019-05-29 15:00:00 21.4 8 Nordeste 23 Este 0 -- -- 36
2019-05-29 14:00:00 20.3 9 Este 21 Sudeste 0 -- -- 38
2019-05-29 13:00:00 18.4 9 Nordeste 19 Este 0 -- -- 42
2019-05-29 12:00:00 16 7 Este 18 Este 0 -- -- 48
2019-05-29 11:00:00 14.4 8 Este 21 Este 0 -- -- 52
2019-05-29 10:00:00 12.6 9 Este 16 Este 0 -- -- 59
2019-05-29 09:00:00 11.1 2 Este 8 Sudeste 0 -- -- 65
2019-05-29 08:00:00 7.4 5 Noroeste 9 Noroeste 0 -- -- 79
2019-05-29 07:00:00 4.4 3 Oeste 6 Oeste 0 -- -- 85
2019-05-29 06:00:00 4.7 3 Oeste 4 Oeste 0 -- -- 83
2019-05-29 05:00:00 5.8 2 Noroeste 3 Oeste 0 -- -- 81
2019-05-29 04:00:00 7.6 2 Sur 14 Nordeste 0 -- -- 75
2019-05-29 03:00:00 8.6 10 Nordeste 16 Este 0 -- -- 72
2019-05-29 02:00:00 9.9 11 Este 26 Este 0 -- -- 66
2019-05-29 01:00:00 11.3 15 Este 26 Este 0 -- -- 59
2019-05-29 00:00:00 12.8 10 Nordeste 27 Nordeste 0 -- -- 54
2019-05-28 23:00:00 14.9 14 Nordeste 28 Nordeste 0 -- -- 48
2019-05-28 22:00:00 17.2 18 Nordeste 32 Nordeste 0 -- -- 40
2019-05-28 21:00:00 19.4 24 Nordeste 35 Nordeste 0 -- -- 34
2019-05-28 20:00:00 21.5 24 Nordeste 45 Nordeste 0 -- -- 33
2019-05-28 19:00:00 23.3 20 Nordeste 40 Nordeste 0 -- -- 29
2019-05-28 18:00:00 24.1 8 Sudeste 23 Este 0 -- -- 27
2019-05-28 17:00:00 23.4 13 Este 23 Este 0 -- -- 27
2019-05-28 16:00:00 22.6 13 Norte 28 Nordeste 0 -- -- 28
2019-05-28 15:00:00 21.6 10 Nordeste 26 Nordeste 0 -- -- 28
2019-05-28 14:00:00 20 13 Este 26 Este 0 -- -- 32
2019-05-28 13:00:00 18.1 8 Nordeste 20 Nordeste 0 -- -- 39
2019-05-28 12:00:00 16.2 9 Este 21 Nordeste 0 -- -- 47
2019-05-28 11:00:00 14.4 13 Este 24 Este 0 -- -- 52
2019-05-28 10:00:00 12.6 15 Nordeste 23 Nordeste 0 -- -- 61
2019-05-28 09:00:00 10.6 11 Este 18 Este 0 -- -- 70
2019-05-28 08:00:00 7.9 3 Norte 6 Noroeste 0 -- -- 84
2019-05-28 07:00:00 5.8 2 Oeste 6 Nordeste 0 -- -- 83
2019-05-28 06:00:00 7.3 5 Nordeste 10 Nordeste 0 -- -- 83
2019-05-28 05:00:00 8.4 6 Este 17 Nordeste 0 -- -- 80
2019-05-28 04:00:00 9.4 8 Este 17 Nordeste 0 -- -- 78
2019-05-28 03:00:00 10.3 9 Este 24 Este 0 -- -- 78
2019-05-28 02:00:00 11.6 15 Este 29 Este 0 -- -- 74
2019-05-28 01:00:00 13.3 14 Nordeste 26 Nordeste 0 -- -- 52
2019-05-28 00:00:00 14.9 15 Nordeste 24 Nordeste 0 -- -- 52